createdAt,value
2022-09-06T00:00:06.539Z,125.000000
2022-09-06T00:01:00.994Z,125.000000
2022-09-06T00:02:01.097Z,122.500000
2022-09-06T00:03:01.366Z,122.500000
2022-09-06T00:04:01.174Z,122.500000
2022-09-06T00:05:04.078Z,122.500000
2022-09-06T00:06:01.133Z,110.000000
2022-09-06T00:07:01.031Z,110.000000
2022-09-06T00:08:01.125Z,105.000000
2022-09-06T00:09:01.059Z,105.000000
2022-09-06T00:10:04.224Z,105.000000
2022-09-06T00:11:01.571Z,147.500000
2022-09-06T00:12:01.150Z,147.500000
2022-09-06T00:13:01.081Z,137.500000
2022-09-06T00:14:01.182Z,137.500000
2022-09-06T00:15:03.940Z,120.000000
2022-09-06T00:16:01.255Z,120.000000
2022-09-06T00:17:01.112Z,120.000000
2022-09-06T00:18:01.206Z,145.000000
2022-09-06T00:19:01.120Z,145.000000
2022-09-06T00:20:04.573Z,145.000000
2022-09-06T00:21:01.159Z,145.000000
2022-09-06T00:22:01.252Z,145.000000
2022-09-06T00:23:01.160Z,165.000000
2022-09-06T00:24:01.245Z,165.000000
2022-09-06T00:25:02.962Z,165.000000
2022-09-06T00:26:00.274Z,157.500000
2022-09-06T00:27:00.210Z,157.500000
2022-09-06T00:28:01.569Z,157.500000
2022-09-06T00:29:00.200Z,160.000000
2022-09-06T00:30:04.440Z,160.000000
2022-09-06T00:31:00.250Z,162.500000
2022-09-06T00:32:00.318Z,162.500000
2022-09-06T00:33:00.238Z,162.500000
2022-09-06T00:34:00.303Z,162.500000
2022-09-06T00:35:03.156Z,162.500000
2022-09-06T00:36:00.333Z,162.500000
2022-09-06T00:37:00.260Z,162.500000
2022-09-06T00:38:00.527Z,155.000000
2022-09-06T00:39:00.270Z,155.000000
2022-09-06T00:40:03.551Z,155.000000
2022-09-06T00:41:00.293Z,145.000000
2022-09-06T00:42:01.551Z,145.000000
2022-09-06T00:43:00.299Z,145.000000
2022-09-06T00:44:00.397Z,135.000000
2022-09-06T00:45:04.756Z,135.000000
2022-09-06T00:46:00.441Z,167.500000
2022-09-06T00:47:00.338Z,167.500000
2022-09-06T00:48:00.435Z,287.500000
2022-09-06T00:49:00.348Z,287.500000
2022-09-06T00:50:03.501Z,287.500000
2022-09-06T00:51:00.373Z,315.000000
2022-09-06T00:52:00.458Z,315.000000
2022-09-06T00:53:00.383Z,315.000000
2022-09-06T00:54:00.486Z,307.500000
2022-09-06T00:55:03.420Z,307.500000
2022-09-06T00:56:01.642Z,307.500000
2022-09-06T00:57:00.413Z,300.000000
2022-09-06T00:58:00.484Z,300.000000
2022-09-06T00:59:00.413Z,250.000000
2022-09-06T01:00:04.020Z,250.000000
2022-09-06T01:01:00.434Z,292.500000
2022-09-06T01:02:00.658Z,292.500000
2022-09-06T01:03:00.450Z,292.500000
2022-09-06T01:04:00.522Z,307.500000
2022-09-06T01:05:03.220Z,307.500000
2022-09-06T01:06:00.534Z,330.000000
2022-09-06T01:07:00.479Z,330.000000
2022-09-06T01:08:00.572Z,330.000000
2022-09-06T01:09:00.482Z,265.000000
2022-09-06T01:10:03.728Z,265.000000
2022-09-06T01:11:00.495Z,230.000000
2022-09-06T01:12:00.568Z,230.000000
2022-09-06T01:13:00.501Z,230.000000
2022-09-06T01:14:00.609Z,180.000000
2022-09-06T01:15:03.285Z,180.000000
2022-09-06T01:16:00.685Z,180.000000
2022-09-06T01:17:00.535Z,185.000000
2022-09-06T01:18:00.604Z,185.000000
2022-09-06T01:19:00.546Z,107.500000
2022-09-06T01:20:03.658Z,107.500000
2022-09-06T01:21:00.569Z,115.000000
2022-09-06T01:22:00.624Z,115.000000
2022-09-06T01:23:00.572Z,332.500000
2022-09-06T01:24:00.655Z,332.500000
2022-09-06T01:25:03.501Z,332.500000
2022-09-06T01:26:00.715Z,175.000000
2022-09-06T01:27:00.602Z,175.000000
2022-09-06T01:28:01.563Z,175.000000
2022-09-06T01:29:00.617Z,117.500000
2022-09-06T01:30:03.740Z,117.500000
2022-09-06T01:31:00.722Z,110.000000
2022-09-06T01:32:00.741Z,110.000000
2022-09-06T01:33:00.661Z,120.000000
2022-09-06T01:34:00.706Z,120.000000
2022-09-06T01:35:03.418Z,120.000000
2022-09-06T01:36:00.729Z,210.000000
2022-09-06T01:37:09.880Z,210.000000
2022-09-06T01:38:00.776Z,210.000000
2022-09-06T01:39:00.691Z,205.000000
2022-09-06T01:40:04.430Z,205.000000
2022-09-06T01:41:00.713Z,205.000000
2022-09-06T01:42:01.595Z,205.000000
2022-09-06T01:43:00.727Z,205.000000
2022-09-06T01:44:00.831Z,267.500000
2022-09-06T01:45:03.563Z,267.500000
2022-09-06T01:46:00.876Z,267.500000
2022-09-06T01:47:00.761Z,305.000000
2022-09-06T01:48:00.842Z,305.000000
2022-09-06T01:49:00.765Z,240.000000
2022-09-06T01:50:04.418Z,240.000000
2022-09-06T01:51:00.796Z,240.000000
2022-09-06T01:52:00.861Z,240.000000
2022-09-06T01:53:00.799Z,240.000000
2022-09-06T01:54:00.877Z,240.000000
2022-09-06T01:55:03.924Z,240.000000
2022-09-06T01:56:01.583Z,240.000000
2022-09-06T01:57:00.842Z,240.000000
2022-09-06T01:58:00.931Z,240.000000
2022-09-06T01:59:00.874Z,240.000000
2022-09-06T02:00:04.361Z,240.000000
2022-09-06T02:01:01.019Z,240.000000
2022-09-06T02:02:01.099Z,240.000000
2022-09-06T02:03:00.909Z,240.000000
2022-09-06T02:04:00.973Z,240.000000
2022-09-06T02:05:03.865Z,240.000000
2022-09-06T02:06:00.995Z,240.000000
2022-09-06T02:07:00.926Z,240.000000
2022-09-06T02:08:01.016Z,240.000000
2022-09-06T02:09:00.959Z,240.000000
2022-09-06T02:10:04.393Z,242.500000
2022-09-06T02:11:00.947Z,242.500000
2022-09-06T02:12:01.052Z,242.500000
2022-09-06T02:13:00.961Z,242.500000
2022-09-06T02:14:01.094Z,242.500000
2022-09-06T02:15:03.825Z,242.500000
2022-09-06T02:16:01.054Z,242.500000
2022-09-06T02:17:01.075Z,242.500000
2022-09-06T02:18:01.070Z,242.500000
2022-09-06T02:19:00.997Z,110.000000
2022-09-06T02:20:04.389Z,110.000000
2022-09-06T02:21:01.034Z,110.000000
2022-09-06T02:22:01.071Z,162.500000
2022-09-06T02:23:01.021Z,162.500000
2022-09-06T02:24:01.096Z,162.500000
2022-09-06T02:25:05.121Z,205.000000
2022-09-06T02:26:01.172Z,205.000000
2022-09-06T02:27:01.065Z,205.000000
2022-09-06T02:28:01.567Z,205.000000
2022-09-06T02:29:01.059Z,205.000000
2022-09-06T02:30:05.398Z,205.000000
2022-09-06T02:31:01.127Z,205.000000
2022-09-06T02:32:01.189Z,147.500000
2022-09-06T02:33:01.104Z,147.500000
2022-09-06T02:34:01.176Z,147.500000
2022-09-06T02:35:04.632Z,107.500000
2022-09-06T02:36:01.202Z,107.500000
2022-09-06T02:37:01.138Z,107.500000
2022-09-06T02:38:01.244Z,107.500000
2022-09-06T02:39:01.157Z,107.500000
2022-09-06T02:40:04.409Z,135.000000
2022-09-06T02:41:01.171Z,135.000000
2022-09-06T02:42:01.585Z,135.000000
2022-09-06T02:43:00.181Z,130.000000
2022-09-06T02:44:00.380Z,130.000000
2022-09-06T02:45:03.124Z,122.500000
2022-09-06T02:46:00.390Z,122.500000
2022-09-06T02:47:00.198Z,122.500000
2022-09-06T02:48:00.284Z,140.000000
2022-09-06T02:49:00.218Z,140.000000
2022-09-06T02:50:03.493Z,145.000000
2022-09-06T02:51:00.247Z,145.000000
2022-09-06T02:52:00.304Z,145.000000
2022-09-06T02:53:00.241Z,100.000000
2022-09-06T02:54:00.319Z,100.000000
2022-09-06T02:55:03.077Z,85.000000
2022-09-06T02:56:01.587Z,85.000000
2022-09-06T02:57:00.280Z,85.000000
2022-09-06T02:58:00.342Z,87.500000
2022-09-06T02:59:00.272Z,87.500000
2022-09-06T03:00:03.622Z,100.000000
2022-09-06T03:01:00.381Z,100.000000
2022-09-06T03:02:00.512Z,100.000000
2022-09-06T03:03:00.336Z,115.000000
2022-09-06T03:04:00.384Z,115.000000
2022-09-06T03:05:03.095Z,115.000000
2022-09-06T03:06:00.416Z,115.000000
2022-09-06T03:07:00.350Z,115.000000
2022-09-06T03:08:00.425Z,125.000000
2022-09-06T03:09:00.373Z,125.000000
2022-09-06T03:10:03.599Z,117.500000
2022-09-06T03:11:00.377Z,117.500000
2022-09-06T03:12:00.450Z,115.000000
2022-09-06T03:13:00.388Z,115.000000
2022-09-06T03:14:00.486Z,115.000000
2022-09-06T03:15:03.186Z,115.000000
2022-09-06T03:16:00.498Z,115.000000
2022-09-06T03:17:00.456Z,115.000000
2022-09-06T03:18:00.539Z,115.000000
2022-09-06T03:19:00.437Z,115.000000
2022-09-06T03:20:03.815Z,115.000000
2022-09-06T03:21:00.479Z,115.000000
2022-09-06T03:22:00.530Z,115.000000
2022-09-06T03:23:00.466Z,115.000000
2022-09-06T03:24:00.670Z,115.000000
2022-09-06T03:25:03.371Z,115.000000
2022-09-06T03:26:00.580Z,115.000000
2022-09-06T03:27:00.508Z,115.000000
2022-09-06T03:28:01.623Z,115.000000
2022-09-06T03:29:00.504Z,115.000000
2022-09-06T03:30:04.211Z,100.000000
2022-09-06T03:31:00.630Z,100.000000
2022-09-06T03:32:00.643Z,95.000000
2022-09-06T03:33:02.741Z,95.000000
2022-09-06T03:34:00.674Z,95.000000
2022-09-06T03:35:03.496Z,95.000000
2022-09-06T03:36:00.653Z,95.000000
2022-09-06T03:37:00.582Z,95.000000
2022-09-06T03:38:00.686Z,95.000000
2022-09-06T03:39:00.631Z,95.000000
2022-09-06T03:40:03.811Z,95.000000
2022-09-06T03:41:00.625Z,125.000000
2022-09-06T03:42:01.586Z,125.000000
2022-09-06T03:43:00.635Z,135.000000
2022-09-06T03:44:00.730Z,135.000000
2022-09-06T03:45:03.538Z,135.000000
2022-09-06T03:46:00.768Z,135.000000
2022-09-06T03:47:00.674Z,135.000000
2022-09-06T03:48:00.749Z,122.500000
2022-09-06T03:49:00.698Z,122.500000
2022-09-06T03:50:05.149Z,122.500000
2022-09-06T03:51:00.717Z,115.000000
2022-09-06T03:52:00.785Z,115.000000
2022-09-06T03:53:00.724Z,117.500000
2022-09-06T03:54:00.813Z,117.500000
2022-09-06T03:55:03.742Z,117.500000
2022-09-06T03:56:01.631Z,117.500000
2022-09-06T03:57:00.785Z,117.500000
2022-09-06T03:58:00.854Z,10.000000
2022-09-06T03:59:00.771Z,10.000000
2022-09-06T04:00:04.103Z,10.000000
2022-09-06T04:01:00.848Z,335.000000
2022-09-06T04:02:00.944Z,335.000000
2022-09-06T04:03:01.828Z,335.000000
2022-09-06T04:04:00.921Z,332.500000
2022-09-06T04:05:03.674Z,332.500000
2022-09-06T04:06:00.950Z,322.500000
2022-09-06T04:07:00.846Z,322.500000
2022-09-06T04:08:00.941Z,310.000000
2022-09-06T04:09:00.876Z,310.000000
2022-09-06T04:10:05.173Z,310.000000
2022-09-06T04:11:00.870Z,315.000000
2022-09-06T04:12:00.952Z,315.000000
2022-09-06T04:13:00.884Z,315.000000
2022-09-06T04:14:00.991Z,7.500000
2022-09-06T04:15:03.886Z,7.500000
2022-09-06T04:16:00.964Z,65.000000
2022-09-06T04:17:01.003Z,65.000000
2022-09-06T04:18:00.998Z,105.000000
2022-09-06T04:19:00.944Z,105.000000
2022-09-06T04:20:05.362Z,105.000000
2022-09-06T04:21:00.967Z,70.000000
2022-09-06T04:22:01.046Z,70.000000
2022-09-06T04:23:00.967Z,70.000000
2022-09-06T04:24:01.052Z,102.500000
2022-09-06T04:25:05.465Z,102.500000
2022-09-06T04:26:01.080Z,120.000000
2022-09-06T04:27:01.022Z,120.000000
2022-09-06T04:28:08.270Z,107.500000
2022-09-06T04:29:01.015Z,107.500000
2022-09-06T04:30:05.824Z,102.500000
2022-09-06T04:31:04.669Z,102.500000
2022-09-06T04:32:01.303Z,102.500000
2022-09-06T04:33:01.072Z,102.500000
2022-09-06T04:34:01.151Z,102.500000
2022-09-06T04:35:04.167Z,102.500000
2022-09-06T04:36:01.164Z,120.000000
2022-09-06T04:37:01.092Z,120.000000
2022-09-06T04:38:01.241Z,135.000000
2022-09-06T04:39:01.127Z,135.000000
2022-09-06T04:40:04.724Z,315.000000
2022-09-06T04:41:01.125Z,315.000000
2022-09-06T04:42:01.199Z,315.000000
2022-09-06T04:43:01.131Z,322.500000
2022-09-06T04:44:01.231Z,322.500000
2022-09-06T04:45:03.961Z,322.500000
2022-09-06T04:46:01.294Z,330.000000
2022-09-06T04:47:01.158Z,330.000000
2022-09-06T04:48:01.241Z,330.000000
2022-09-06T04:49:01.171Z,332.500000
2022-09-06T04:50:05.559Z,332.500000
2022-09-06T04:51:00.183Z,340.000000
2022-09-06T04:52:00.238Z,340.000000
2022-09-06T04:53:00.186Z,340.000000
2022-09-06T04:54:00.393Z,355.000000
2022-09-06T04:55:04.267Z,355.000000
2022-09-06T04:56:00.328Z,355.000000
2022-09-06T04:57:00.222Z,357.500000
2022-09-06T04:58:00.293Z,357.500000
2022-09-06T04:59:00.246Z,357.500000
2022-09-06T05:00:04.753Z,357.500000
2022-09-06T05:01:00.326Z,357.500000
2022-09-06T05:02:00.585Z,357.500000
2022-09-06T05:03:00.312Z,357.500000
2022-09-06T05:04:00.381Z,357.500000
2022-09-06T05:05:03.162Z,357.500000
2022-09-06T05:06:00.390Z,357.500000
2022-09-06T05:07:00.336Z,357.500000
2022-09-06T05:08:00.423Z,357.500000
2022-09-06T05:09:00.352Z,355.000000
2022-09-06T05:10:03.539Z,355.000000
2022-09-06T05:11:00.373Z,355.000000
2022-09-06T05:12:00.472Z,340.000000
2022-09-06T05:13:00.385Z,340.000000
2022-09-06T05:14:00.498Z,337.500000
2022-09-06T05:15:03.451Z,337.500000
2022-09-06T05:16:00.518Z,337.500000
2022-09-06T05:17:00.412Z,337.500000
2022-09-06T05:18:00.491Z,337.500000
2022-09-06T05:19:00.427Z,337.500000
2022-09-06T05:20:05.116Z,337.500000
2022-09-06T05:21:00.464Z,337.500000
2022-09-06T05:22:00.529Z,337.500000
2022-09-06T05:23:00.481Z,337.500000
2022-09-06T05:24:00.552Z,337.500000
2022-09-06T05:25:03.323Z,337.500000
2022-09-06T05:26:00.620Z,337.500000
2022-09-06T05:27:00.959Z,340.000000
2022-09-06T05:28:00.574Z,340.000000
2022-09-06T05:29:00.512Z,340.000000
2022-09-06T05:30:03.810Z,335.000000
2022-09-06T05:31:00.557Z,335.000000
2022-09-06T05:32:00.834Z,30.000000
2022-09-06T05:33:00.584Z,30.000000
2022-09-06T05:34:00.649Z,30.000000
2022-09-06T05:35:03.621Z,105.000000
2022-09-06T05:36:00.665Z,105.000000
2022-09-06T05:37:00.592Z,105.000000
2022-09-06T05:38:00.683Z,105.000000
2022-09-06T05:39:00.623Z,105.000000
2022-09-06T05:40:04.267Z,105.000000
2022-09-06T05:41:00.625Z,105.000000
2022-09-06T05:42:00.742Z,105.000000
2022-09-06T05:43:00.634Z,105.000000
2022-09-06T05:44:00.745Z,105.000000
2022-09-06T05:45:03.642Z,105.000000
2022-09-06T05:46:00.830Z,105.000000
2022-09-06T05:47:00.671Z,110.000000
2022-09-06T05:48:00.737Z,110.000000
2022-09-06T05:49:00.683Z,95.000000
2022-09-06T05:50:03.939Z,95.000000
2022-09-06T05:51:00.715Z,95.000000
2022-09-06T05:52:00.775Z,80.000000
2022-09-06T05:53:00.718Z,80.000000
2022-09-06T05:54:00.794Z,80.000000
2022-09-06T05:55:03.576Z,25.000000
2022-09-06T05:56:00.870Z,25.000000
2022-09-06T05:57:00.784Z,92.500000
2022-09-06T05:58:00.873Z,92.500000
2022-09-06T05:59:00.781Z,110.000000
2022-09-06T06:00:05.112Z,110.000000
2022-09-06T06:01:00.813Z,110.000000
2022-09-06T06:02:03.327Z,117.500000
2022-09-06T06:03:00.816Z,117.500000
2022-09-06T06:04:00.878Z,117.500000
2022-09-06T06:05:03.942Z,105.000000
2022-09-06T06:06:00.930Z,105.000000
2022-09-06T06:07:00.837Z,105.000000
2022-09-06T06:08:00.944Z,102.500000
2022-09-06T06:09:00.864Z,102.500000
2022-09-06T06:10:05.071Z,115.000000
2022-09-06T06:11:00.852Z,115.000000
2022-09-06T06:12:00.945Z,95.000000
2022-09-06T06:13:00.880Z,95.000000
2022-09-06T06:14:01.019Z,95.000000
2022-09-06T06:15:05.337Z,107.500000
2022-09-06T06:16:00.998Z,107.500000
2022-09-06T06:17:00.988Z,105.000000
2022-09-06T06:18:01.076Z,105.000000
2022-09-06T06:19:00.927Z,105.000000
2022-09-06T06:20:04.029Z,102.500000
2022-09-06T06:21:00.962Z,102.500000
2022-09-06T06:22:01.008Z,100.000000
2022-09-06T06:23:00.957Z,100.000000
2022-09-06T06:24:01.039Z,100.000000
2022-09-06T06:25:04.240Z,102.500000
2022-09-06T06:26:01.035Z,102.500000
2022-09-06T06:27:00.978Z,127.500000
2022-09-06T06:28:01.052Z,127.500000
2022-09-06T06:29:01.000Z,127.500000
2022-09-06T06:30:05.595Z,112.500000
2022-09-06T06:31:01.025Z,112.500000
2022-09-06T06:32:01.155Z,120.000000
2022-09-06T06:33:01.042Z,120.000000
2022-09-06T06:34:01.106Z,120.000000
2022-09-06T06:35:03.836Z,115.000000
2022-09-06T06:36:01.156Z,115.000000
2022-09-06T06:37:01.067Z,115.000000
2022-09-06T06:38:01.148Z,102.500000
2022-09-06T06:39:01.082Z,102.500000
2022-09-06T06:40:04.293Z,105.000000
2022-09-06T06:41:06.386Z,105.000000
2022-09-06T06:42:01.196Z,105.000000
2022-09-06T06:43:01.099Z,120.000000
2022-09-06T06:44:01.190Z,120.000000
2022-09-06T06:45:05.228Z,115.000000
2022-09-06T06:46:01.259Z,115.000000
2022-09-06T06:47:01.131Z,115.000000
2022-09-06T06:48:01.243Z,115.000000
2022-09-06T06:49:01.146Z,115.000000
2022-09-06T06:50:05.404Z,120.000000
2022-09-06T06:51:01.162Z,120.000000
2022-09-06T06:52:01.229Z,120.000000
2022-09-06T06:53:01.158Z,120.000000
2022-09-06T06:54:00.272Z,120.000000
2022-09-06T06:55:02.995Z,120.000000
2022-09-06T06:56:00.247Z,120.000000
2022-09-06T06:57:00.196Z,120.000000
2022-09-06T06:58:00.271Z,107.500000
2022-09-06T06:59:00.200Z,107.500000
2022-09-06T07:00:04.592Z,107.500000
2022-09-06T07:01:00.356Z,120.000000
2022-09-06T07:02:00.511Z,120.000000
2022-09-06T07:03:00.249Z,127.500000
2022-09-06T07:04:00.309Z,127.500000
2022-09-06T07:08:00.358Z,125.000000
2022-09-06T07:09:00.300Z,125.000000
2022-09-06T07:10:33.968Z,120.000000
2022-09-06T07:11:00.316Z,120.000000
2022-09-06T07:12:00.422Z,120.000000
2022-09-06T07:13:00.332Z,115.000000
2022-09-06T07:14:00.407Z,115.000000
2022-09-06T07:15:03.321Z,115.000000
2022-09-06T07:16:00.470Z,115.000000
2022-09-06T07:17:00.362Z,115.000000
2022-09-06T07:18:00.493Z,130.000000
2022-09-06T07:19:00.650Z,130.000000
2022-09-06T07:22:04.449Z,140.000000
2022-09-06T07:24:08.392Z,140.000000
2022-09-06T07:25:03.343Z,140.000000
2022-09-06T07:26:00.490Z,145.000000
2022-09-06T07:28:03.930Z,120.000000
2022-09-06T07:29:00.448Z,120.000000
2022-09-06T07:30:03.891Z,115.000000
2022-09-06T07:31:00.630Z,115.000000
2022-09-06T07:32:13.163Z,115.000000
2022-09-06T07:33:00.489Z,115.000000
2022-09-06T07:34:00.597Z,115.000000
2022-09-06T07:35:03.416Z,115.000000
2022-09-06T07:36:00.585Z,110.000000
2022-09-06T07:37:00.506Z,110.000000
2022-09-06T07:38:00.580Z,125.000000
2022-09-06T07:39:00.522Z,125.000000
2022-09-06T07:40:03.817Z,125.000000
2022-09-06T07:41:00.522Z,125.000000
2022-09-06T07:42:00.702Z,125.000000
2022-09-06T07:43:00.541Z,140.000000
2022-09-06T07:44:00.614Z,140.000000
2022-09-06T07:45:03.477Z,140.000000
2022-09-06T07:46:00.632Z,135.000000
2022-09-06T07:48:00.688Z,142.500000
2022-09-06T07:49:00.569Z,142.500000
2022-09-06T07:51:00.594Z,140.000000
2022-09-06T07:52:00.813Z,140.000000
2022-09-06T07:53:10.773Z,140.000000
2022-09-06T07:54:28.882Z,140.000000
2022-09-06T07:55:03.472Z,140.000000
2022-09-06T07:56:00.694Z,150.000000
2022-09-06T07:57:00.649Z,150.000000
2022-09-06T07:58:00.705Z,150.000000
2022-09-06T07:59:00.650Z,140.000000
2022-09-06T08:00:03.993Z,140.000000
2022-09-06T08:01:00.733Z,152.500000
2022-09-06T08:02:01.724Z,152.500000
2022-09-06T08:03:00.716Z,165.000000
2022-09-06T08:04:02.188Z,165.000000
2022-09-06T08:06:09.060Z,150.000000
2022-09-06T08:09:00.772Z,125.000000
2022-09-06T08:10:04.141Z,125.000000
2022-09-06T08:11:00.777Z,117.500000
2022-09-06T08:12:00.834Z,117.500000
2022-09-06T08:13:00.778Z,117.500000
2022-09-06T08:14:00.853Z,135.000000
2022-09-06T08:15:03.745Z,135.000000
2022-09-06T08:16:00.917Z,135.000000
2022-09-06T08:17:00.830Z,125.000000
2022-09-06T08:18:00.889Z,125.000000
2022-09-06T08:19:00.807Z,160.000000
2022-09-06T08:20:05.093Z,160.000000
2022-09-06T08:21:00.867Z,160.000000
2022-09-06T08:22:00.904Z,170.000000
2022-09-06T08:23:00.873Z,170.000000
2022-09-06T08:24:00.926Z,145.000000
2022-09-06T08:25:03.774Z,145.000000
2022-09-06T08:26:00.924Z,145.000000
2022-09-06T08:27:00.878Z,145.000000
2022-09-06T08:28:00.928Z,145.000000
2022-09-06T08:29:00.914Z,115.000000
2022-09-06T08:30:04.288Z,115.000000
2022-09-06T08:31:00.893Z,115.000000
2022-09-06T08:32:01.045Z,130.000000
2022-09-06T08:33:00.911Z,130.000000
2022-09-06T08:34:00.973Z,140.000000
2022-09-06T08:35:04.979Z,140.000000
2022-09-06T08:36:01.011Z,185.000000
2022-09-06T08:37:00.966Z,185.000000
2022-09-06T08:38:00.996Z,185.000000
2022-09-06T08:39:00.963Z,167.500000
2022-09-06T08:40:05.371Z,167.500000
2022-09-06T08:41:00.963Z,167.500000
2022-09-06T08:42:01.043Z,142.500000
2022-09-06T08:43:01.179Z,142.500000
2022-09-06T08:45:03.787Z,135.000000
2022-09-06T08:46:01.106Z,135.000000
2022-09-06T08:47:01.125Z,197.500000
2022-09-06T08:48:01.096Z,197.500000
2022-09-06T08:49:01.010Z,160.000000
2022-09-06T08:50:05.592Z,160.000000
2022-09-06T08:51:01.045Z,160.000000
2022-09-06T08:52:01.117Z,117.500000
2022-09-06T08:53:16.687Z,117.500000
2022-09-06T08:54:01.135Z,117.500000
2022-09-06T08:55:04.213Z,120.000000
2022-09-06T08:56:01.127Z,120.000000
2022-09-06T08:57:01.084Z,115.000000
2022-09-06T08:58:01.176Z,115.000000
2022-09-06T08:59:01.087Z,125.000000
2022-09-06T09:00:06.385Z,125.000000
2022-09-06T09:01:01.243Z,125.000000
2022-09-06T09:02:01.307Z,120.000000
2022-09-06T09:03:01.167Z,120.000000
2022-09-06T09:04:02.603Z,120.000000
2022-09-06T09:05:04.152Z,127.500000
2022-09-06T09:06:00.659Z,127.500000
2022-09-06T09:07:00.188Z,100.000000
2022-09-06T09:08:00.843Z,100.000000
2022-09-06T09:09:00.390Z,112.500000
2022-09-06T09:10:03.609Z,112.500000
2022-09-06T09:11:00.216Z,112.500000
2022-09-06T09:12:02.250Z,140.000000
2022-09-06T09:13:00.221Z,140.000000
2022-09-06T09:14:00.297Z,160.000000
2022-09-06T09:15:03.073Z,160.000000
2022-09-06T09:16:00.415Z,160.000000
2022-09-06T09:17:00.272Z,140.000000
2022-09-06T09:18:00.350Z,140.000000
2022-09-06T09:19:00.281Z,135.000000
2022-09-06T09:20:03.530Z,135.000000
2022-09-06T09:21:00.310Z,152.500000
2022-09-06T09:22:00.384Z,152.500000
2022-09-06T09:23:00.303Z,152.500000
2022-09-06T09:24:00.378Z,135.000000
2022-09-06T09:25:03.478Z,135.000000
2022-09-06T09:26:00.394Z,135.000000
2022-09-06T09:27:00.344Z,142.500000
2022-09-06T09:28:00.427Z,142.500000
2022-09-06T09:29:00.357Z,147.500000
2022-09-06T09:31:00.424Z,147.500000
2022-09-06T09:32:00.481Z,157.500000
2022-09-06T09:33:00.390Z,157.500000
2022-09-06T09:34:00.475Z,157.500000
2022-09-06T09:35:03.173Z,162.500000
2022-09-06T09:36:00.487Z,162.500000
2022-09-06T09:38:03.650Z,132.500000
2022-09-06T09:39:00.436Z,132.500000
2022-09-06T09:40:04.894Z,190.000000
2022-09-06T09:41:00.449Z,190.000000
2022-09-06T09:42:00.536Z,160.000000
2022-09-06T09:43:00.464Z,160.000000
2022-09-06T09:44:04.403Z,185.000000
2022-09-06T09:45:03.313Z,185.000000
2022-09-06T09:46:00.587Z,185.000000
2022-09-06T09:47:00.568Z,185.000000
2022-09-06T09:48:00.572Z,185.000000
2022-09-06T09:49:00.513Z,185.000000
2022-09-06T09:50:04.915Z,207.500000
2022-09-06T09:51:00.527Z,207.500000
2022-09-06T09:52:00.603Z,172.500000
2022-09-06T09:53:00.530Z,172.500000
2022-09-06T09:54:00.607Z,172.500000
2022-09-06T09:55:04.201Z,185.000000
2022-09-06T09:56:00.656Z,185.000000
2022-09-06T09:57:00.574Z,185.000000
2022-09-06T09:58:00.684Z,317.500000
2022-09-06T09:59:00.581Z,317.500000
2022-09-06T10:00:05.534Z,160.000000
2022-09-06T10:01:00.713Z,160.000000
2022-09-06T10:02:00.690Z,160.000000
2022-09-06T10:03:00.665Z,110.000000
2022-09-06T10:05:04.709Z,105.000000
2022-09-06T10:06:02.799Z,105.000000
2022-09-06T10:08:00.718Z,105.000000
2022-09-06T10:09:00.672Z,105.000000
2022-09-06T10:10:05.047Z,135.000000
2022-09-06T10:11:00.687Z,135.000000
2022-09-06T10:12:00.815Z,135.000000
2022-09-06T10:13:00.699Z,122.500000
2022-09-06T10:14:00.794Z,122.500000
2022-09-06T10:15:07.068Z,337.500000
2022-09-06T10:16:00.841Z,337.500000
2022-09-06T10:17:00.748Z,50.000000
2022-09-06T10:18:00.810Z,50.000000
2022-09-06T10:19:00.748Z,50.000000
2022-09-06T10:20:05.092Z,95.000000
2022-09-06T10:21:00.777Z,95.000000
2022-09-06T10:22:00.882Z,95.000000
2022-09-06T10:23:00.780Z,170.000000
2022-09-06T10:24:28.143Z,170.000000
2022-09-06T10:25:03.665Z,170.000000
2022-09-06T10:26:00.867Z,65.000000
2022-09-06T10:27:00.806Z,65.000000
2022-09-06T10:28:10.955Z,142.500000
2022-09-06T10:29:00.819Z,142.500000
2022-09-06T10:30:05.125Z,182.500000
2022-09-06T10:31:00.872Z,182.500000
2022-09-06T10:32:00.891Z,182.500000
2022-09-06T10:33:00.853Z,172.500000
2022-09-06T10:34:00.938Z,172.500000
2022-09-06T10:35:04.896Z,150.000000
2022-09-06T10:36:00.959Z,150.000000
2022-09-06T10:37:00.881Z,150.000000
2022-09-06T10:38:00.938Z,140.000000
2022-09-06T10:39:03.927Z,140.000000
2022-09-06T10:40:05.129Z,140.000000
2022-09-06T10:41:00.906Z,140.000000
2022-09-06T10:42:00.989Z,140.000000
2022-09-06T10:43:00.920Z,160.000000
2022-09-06T10:44:01.006Z,160.000000
2022-09-06T10:45:04.200Z,140.000000
2022-09-06T10:46:01.104Z,140.000000
2022-09-06T10:47:00.961Z,140.000000
2022-09-06T10:48:01.034Z,172.500000
2022-09-06T10:49:00.970Z,172.500000
2022-09-06T10:50:05.275Z,270.000000
2022-09-06T10:51:01.000Z,270.000000
2022-09-06T10:52:01.078Z,270.000000
2022-09-06T10:53:01.004Z,205.000000
2022-09-06T10:54:01.081Z,205.000000
2022-09-06T10:55:03.849Z,205.000000
2022-09-06T10:56:01.658Z,135.000000
2022-09-06T10:57:01.102Z,135.000000
2022-09-06T10:58:16.630Z,135.000000
2022-09-06T11:00:05.383Z,132.500000
2022-09-06T11:01:01.083Z,115.000000
2022-09-06T11:02:01.271Z,115.000000
2022-09-06T11:04:04.499Z,132.500000
2022-09-06T11:06:01.197Z,140.000000
2022-09-06T11:07:01.102Z,140.000000
2022-09-06T11:09:01.254Z,170.000000
2022-09-06T11:10:05.490Z,170.000000
2022-09-06T11:11:01.145Z,110.000000
2022-09-06T11:12:01.186Z,110.000000
2022-09-06T11:13:01.141Z,122.500000
2022-09-06T11:14:05.420Z,122.500000
2022-09-06T11:15:04.120Z,122.500000
2022-09-06T11:16:01.397Z,135.000000
2022-09-06T11:17:01.177Z,135.000000
2022-09-06T11:18:00.255Z,135.000000
2022-09-06T11:19:00.185Z,122.500000
2022-09-06T11:20:03.742Z,122.500000
2022-09-06T11:21:00.210Z,122.500000
2022-09-06T11:22:00.318Z,107.500000
2022-09-06T11:23:00.221Z,107.500000
2022-09-06T11:24:00.289Z,75.000000
2022-09-06T11:25:03.462Z,75.000000
2022-09-06T11:26:00.319Z,140.000000
2022-09-06T11:27:00.260Z,140.000000